Time;durP1;ratioP1;P1;durP2;ratioP2;P2;SDS_P1;SDS_P2;PMS_P1;PMS_P2;Temp;Humidity;BMP_temperature;BMP_pressure;BME280_temperature;BME280_humidity;BME280_pressure;Samples;Min_cycle;Max_cycle;Signal;HPM_P1;HPM_P2
2022/03/26 00:00:09;;;;;;;26.37;13.30;;;;;;;0.39;61.07;102203.17;1735094;82;27432;-61
2022/03/26 00:02:38;;;;;;;37.45;16.00;;;;;;;0.39;61.25;102204.03;1735179;82;25870;-61
2022/03/26 00:05:06;;;;;;;31.50;15.10;;;;;;;0.40;61.42;102203.59;1735130;82;25818;-61
2022/03/26 00:07:33;;;;;;;27.17;15.23;;;;;;;0.38;61.30;102201.42;1735007;82;25933;-61
2022/03/26 00:10:00;;;;;;;24.75;13.70;;;;;;;0.35;61.31;102194.87;1735892;82;26006;-61
2022/03/26 00:12:27;;;;;;;29.45;14.40;;;;;;;0.32;61.42;102197.14;1735485;82;27660;-61
2022/03/26 00:14:53;;;;;;;36.38;14.47;;;;;;;0.28;61.51;102191.05;1735550;82;25472;-61
2022/03/26 00:17:20;;;;;;;24.60;13.62;;;;;;;0.27;61.43;102199.03;1735602;82;25780;-61
2022/03/26 00:19:47;;;;;;;23.90;13.32;;;;;;;0.25;61.53;102205.66;1735323;82;25787;-59
2022/03/26 00:22:14;;;;;;;30.48;13.20;;;;;;;0.24;62.04;102201.73;1735531;82;25749;-60
2022/03/26 00:24:41;;;;;;;33.53;15.32;;;;;;;0.14;61.86;102193.11;1727528;82;28100;-61
2022/03/26 00:27:08;;;;;;;27.40;13.58;;;;;;;0.08;61.95;102195.91;1700833;83;25503;-61
2022/03/26 00:29:36;;;;;;;24.35;14.30;;;;;;;0.08;62.07;102194.58;1700818;84;25486;-61
2022/03/26 00:32:06;;;;;;;35.25;16.02;;;;;;;0.03;62.03;102184.56;1711061;82;25807;-61
2022/03/26 00:34:32;;;;;;;27.82;13.58;;;;;;;0.00;62.23;102189.47;1707587;82;25714;-61
2022/03/26 00:37:00;;;;;;;34.50;14.78;;;;;;;-0.02;62.16;102188.63;1705907;82;27575;-61
2022/03/26 00:39:28;;;;;;;26.07;13.35;;;;;;;-0.05;62.32;102189.58;1705878;82;25730;-60
2022/03/26 00:41:54;;;;;;;32.83;14.07;;;;;;;-0.10;62.56;102194.53;1706012;82;25726;-61
2022/03/26 00:44:21;;;;;;;22.13;12.28;;;;;;;-0.15;62.29;102188.02;1706256;84;26737;-61
2022/03/26 00:46:49;;;;;;;35.30;16.02;;;;;;;-0.19;62.26;102192.94;1706042;84;25853;-61
2022/03/26 00:49:18;;;;;;;39.95;19.02;;;;;;;-0.23;62.30;102187.31;1705841;84;28570;-61
2022/03/26 00:51:45;;;;;;;35.15;15.15;;;;;;;-0.27;62.57;102189.58;1705758;84;25780;-61
2022/03/26 00:54:13;;;;;;;25.62;13.32;;;;;;;-0.26;62.85;102190.86;1719930;82;25829;-61
2022/03/26 00:56:42;;;;;;;29.05;15.55;;;;;;;-0.28;62.52;102188.73;1734655;82;25789;-62
2022/03/26 00:59:09;;;;;;;25.70;14.03;;;;;;;-0.27;62.66;102185.15;1734752;81;25762;-61
2022/03/26 01:01:36;;;;;;;35.28;16.23;;;;;;;-0.28;62.60;102187.41;1734718;82;27461;-61
2022/03/26 01:04:04;;;;;;;26.90;14.15;;;;;;;-0.30;62.66;102185.67;1734855;82;25691;-61
2022/03/26 01:06:31;;;;;;;33.65;16.20;;;;;;;-0.29;63.00;102189.63;1734464;82;25455;-61
2022/03/26 01:08:58;;;;;;;25.17;14.93;;;;;;;-0.29;62.77;102183.45;1734980;82;26164;-62
2022/03/26 01:11:25;;;;;;;28.32;15.03;;;;;;;-0.27;63.00;102187.80;1734475;82;27302;-62
2022/03/26 01:13:56;;;;;;;28.85;13.75;;;;;;;-0.33;62.92;102187.50;1734369;82;27445;-62
2022/03/26 01:16:22;;;;;;;33.95;14.75;;;;;;;-0.37;62.99;102187.59;1734712;81;26172;-61
2022/03/26 01:18:50;;;;;;;35.20;15.90;;;;;;;-0.38;63.00;102188.02;1735028;82;25474;-61
2022/03/26 01:21:19;;;;;;;27.17;14.53;;;;;;;-0.36;63.09;102188.87;1734554;82;25773;-60
2022/03/26 01:23:48;;;;;;;29.15;14.93;;;;;;;-0.36;63.06;102182.26;1734822;82;25792;-61
2022/03/26 01:26:15;;;;;;;28.27;14.60;;;;;;;-0.34;63.02;102182.22;1734391;81;27474;-61
2022/03/26 01:28:43;;;;;;;24.82;15.10;;;;;;;-0.34;63.01;102179.14;1734461;82;25662;-61
2022/03/26 01:31:11;;;;;;;30.90;14.78;;;;;;;-0.35;63.09;102188.41;1734680;82;25449;-61
2022/03/26 01:33:38;;;;;;;28.50;16.07;;;;;;;-0.36;63.05;102184.05;1734361;82;25737;-61
2022/03/26 01:36:08;;;;;;;27.32;13.78;;;;;;;-0.35;63.09;102184.44;1734579;82;25691;-61
2022/03/26 01:38:35;;;;;;;27.98;13.30;;;;;;;-0.37;63.06;102174.37;1734976;82;28424;-61
2022/03/26 01:41:02;;;;;;;23.55;13.03;;;;;;;-0.40;62.97;102179.24;1734504;82;25763;-61
2022/03/26 01:43:29;;;;;;;32.73;15.00;;;;;;;-0.43;62.83;102171.39;1734634;81;25849;-61
2022/03/26 01:45:56;;;;;;;38.60;14.35;;;;;;;-0.45;62.86;102174.97;1734588;82;26555;-62
2022/03/26 01:48:23;;;;;;;30.25;15.13;;;;;;;-0.46;63.04;102167.47;1734858;82;25898;-62
2022/03/26 01:50:50;;;;;;;34.58;17.00;;;;;;;-0.48;63.00;102171.48;1734616;81;27315;-62
2022/03/26 01:53:18;;;;;;;27.65;14.78;;;;;;;-0.48;63.02;102166.63;1734613;82;25458;-61
2022/03/26 01:55:45;;;;;;;29.57;15.10;;;;;;;-0.49;63.06;102168.84;1743890;80;25403;-62
2022/03/26 01:58:13;;;;;;;29.70;15.35;;;;;;;-0.49;62.99;102168.84;1697456;82;26426;-61
2022/03/26 02:00:40;;;;;;;30.52;15.00;;;;;;;-0.49;63.02;102168.41;1722033;83;25715;-61
2022/03/26 02:03:08;;;;;;;26.17;15.00;;;;;;;-0.54;63.12;102165.44;1720623;83;28199;-62
2022/03/26 02:05:36;;;;;;;38.45;15.83;;;;;;;-0.55;62.95;102172.51;1753611;81;26720;-62
2022/03/26 02:08:03;;;;;;;29.70;15.98;;;;;;;-0.56;62.94;102176.48;1717255;83;25809;-62
2022/03/26 02:10:30;;;;;;;30.37;15.85;;;;;;;-0.62;63.65;102166.89;1753592;81;25814;-62
2022/03/26 02:12:58;;;;;;;32.78;16.00;;;;;;;-0.65;63.38;102169.16;1717136;83;25712;-61
2022/03/26 02:15:26;;;;;;;33.48;16.15;;;;;;;-0.66;63.59;102164.77;1753569;81;27710;-62
2022/03/26 02:17:53;;;;;;;31.55;15.48;;;;;;;-0.68;63.56;102165.27;1717044;83;25727;-61
2022/03/26 02:20:22;;;;;;;28.65;15.30;;;;;;;-0.69;63.47;102163.52;1753753;81;25795;-61
2022/03/26 02:22:49;;;;;;;27.00;14.85;;;;;;;-0.70;63.69;102163.53;1717451;83;25920;-61
2022/03/26 02:25:17;;;;;;;26.95;15.60;;;;;;;-0.74;63.75;102159.22;1753052;80;25766;-62
2022/03/26 02:27:45;;;;;;;30.50;14.87;;;;;;;-0.75;63.79;102160.12;1753588;81;27489;-61
2022/03/26 02:30:13;;;;;;;33.42;15.70;;;;;;;-0.76;63.79;102162.34;1716987;83;25820;-61
2022/03/26 02:32:40;;;;;;;33.18;14.98;;;;;;;-0.77;63.83;102153.55;1753789;81;25877;-61
2022/03/26 02:35:09;;;;;;;37.03;14.30;;;;;;;-0.76;63.72;102156.59;1716927;83;25799;-61
2022/03/26 02:37:36;;;;;;;35.78;14.80;;;;;;;-0.76;64.00;102153.94;1754126;81;25525;-61
2022/03/26 02:40:07;;;;;;;37.08;16.00;;;;;;;-0.80;63.60;102147.84;1717116;83;27491;-61
2022/03/26 02:42:36;;;;;;;29.75;16.00;;;;;;;-0.80;63.70;102146.99;1753528;81;25518;-61
2022/03/26 02:45:05;;;;;;;30.37;14.68;;;;;;;-0.79;63.90;102148.27;1717159;83;25633;-60
2022/03/26 02:47:32;;;;;;;28.45;13.78;;;;;;;-0.80;63.77;102139.92;1753626;81;26534;-61
2022/03/26 02:49:59;;;;;;;36.48;15.58;;;;;;;-0.77;63.89;102145.63;1717443;83;25738;-61
2022/03/26 02:52:26;;;;;;;30.80;14.07;;;;;;;-0.76;63.91;102140.73;1753522;80;27508;-61
2022/03/26 02:54:53;;;;;;;30.75;14.95;;;;;;;-0.77;63.92;102137.70;1712260;83;26022;-62
2022/03/26 02:57:20;;;;;;;26.68;15.20;;;;;;;-0.80;63.68;102145.20;1748452;82;25770;-60
2022/03/26 02:59:47;;;;;;;31.87;15.23;;;;;;;-0.82;64.06;102140.86;1748273;82;25857;-61
2022/03/26 03:02:14;;;;;;;29.77;14.75;;;;;;;-0.87;64.01;102142.27;1748570;81;25465;-62
2022/03/26 03:04:40;;;;;;;34.08;15.80;;;;;;;-0.88;64.32;102141.84;1748608;82;27523;-61
2022/03/26 03:07:07;;;;;;;24.82;14.90;;;;;;;-0.92;64.08;102134.89;1748401;82;25644;-61
2022/03/26 03:09:34;;;;;;;39.63;15.93;;;;;;;-0.95;63.95;102141.11;1748630;81;25701;-61
2022/03/26 03:12:01;;;;;;;35.30;14.90;;;;;;;-0.96;64.16;102142.44;1748453;82;25811;-59
2022/03/26 03:14:28;;;;;;;31.97;14.63;;;;;;;-1.00;64.24;102133.70;1748418;82;27252;-60
2022/03/26 03:16:54;;;;;;;34.78;16.70;;;;;;;-1.04;64.24;102133.34;1748517;82;27523;-60
2022/03/26 03:19:21;;;;;;;37.13;15.08;;;;;;;-1.05;64.25;102134.24;1748564;82;25470;-60
2022/03/26 03:21:48;;;;;;;32.30;15.20;;;;;;;-1.04;64.44;102131.14;1748640;82;25738;-60
2022/03/26 03:24:16;;;;;;;33.25;16.70;;;;;;;-1.05;64.63;102132.92;1748734;81;26627;-61
2022/03/26 03:26:43;;;;;;;33.10;16.17;;;;;;;-1.11;64.40;102129.05;1748507;81;25739;-61
2022/03/26 03:29:10;;;;;;;32.73;14.98;;;;;;;-1.15;64.52;102125.59;1748903;81;28454;-60
2022/03/26 03:31:38;;;;;;;37.33;15.38;;;;;;;-1.15;64.44;102126.06;1748424;82;25422;-60
2022/03/26 03:34:05;;;;;;;26.65;14.80;;;;;;;-1.15;64.37;102126.91;1748662;81;25737;-60
2022/03/26 03:36:32;;;;;;;27.22;15.43;;;;;;;-1.13;64.50;102128.23;1748181;81;27960;-61
2022/03/26 03:38:58;;;;;;;27.30;15.05;;;;;;;-1.15;64.38;102120.31;1748281;82;25715;-59
2022/03/26 03:41:26;;;;;;;29.60;15.40;;;;;;;-1.19;64.24;102118.64;1748525;81;27482;-60
2022/03/26 03:43:53;;;;;;;28.25;15.35;;;;;;;-1.20;64.29;102118.22;1748373;82;27299;-60
2022/03/26 03:46:19;;;;;;;37.88;16.20;;;;;;;-1.21;64.23;102122.22;1748619;82;25708;-61
2022/03/26 03:48:46;;;;;;;42.38;16.45;;;;;;;-1.20;64.36;102125.25;1749141;82;25805;-59
2022/03/26 03:51:13;;;;;;;36.40;16.05;;;;;;;-1.20;64.39;102127.89;1748658;80;25971;-60
2022/03/26 03:53:40;;;;;;;36.25;16.42;;;;;;;-1.18;64.50;102120.82;1748699;82;27573;-61
2022/03/26 03:56:07;;;;;;;26.73;15.28;;;;;;;-1.16;64.45;102110.64;1739183;81;25778;-60
2022/03/26 03:58:34;;;;;;;42.30;16.37;;;;;;;-1.21;64.32;102119.11;1730038;82;25695;-60
2022/03/26 04:01:02;;;;;;;32.42;16.52;;;;;;;-1.26;64.32;102115.23;1737725;82;25858;-60
2022/03/26 04:03:30;;;;;;;30.97;15.25;;;;;;;-1.24;64.43;102117.83;1738048;82;26268;-60
2022/03/26 04:05:58;;;;;;;37.13;16.32;;;;;;;-1.21;64.45;102119.58;1737871;82;27482;-60
2022/03/26 04:08:26;;;;;;;27.65;14.60;;;;;;;-1.22;64.48;102113.87;1737595;82;25699;-61
2022/03/26 04:10:52;;;;;;;25.95;15.32;;;;;;;-1.23;64.21;102114.30;1738128;82;25758;-61
2022/03/26 04:13:19;;;;;;;30.55;14.75;;;;;;;-1.20;64.21;102117.33;1738150;82;25925;-60
2022/03/26 04:15:46;;;;;;;34.30;16.10;;;;;;;-1.18;64.20;102110.26;1737705;82;25763;-61
2022/03/26 04:18:12;;;;;;;31.93;16.15;;;;;;;-1.17;64.25;102112.00;1737950;82;28513;-61
2022/03/26 04:20:40;;;;;;;33.28;14.95;;;;;;;-1.16;64.25;102111.11;1737516;82;25722;-61
2022/03/26 04:23:07;;;;;;;23.45;14.38;;;;;;;-1.15;64.18;102111.06;1738007;82;25846;-61
2022/03/26 04:25:35;;;;;;;37.80;15.03;;;;;;;-1.16;64.21;102112.42;1738161;82;25954;-60
2022/03/26 04:28:01;;;;;;;32.33;15.30;;;;;;;-1.17;64.41;102110.68;1737845;82;25836;-61
2022/03/26 04:30:29;;;;;;;37.38;16.87;;;;;;;-1.20;64.48;102108.09;1737684;82;27473;-61
2022/03/26 04:32:56;;;;;;;39.08;15.15;;;;;;;-1.22;64.43;102120.47;1738027;82;25768;-61
2022/03/26 04:35:24;;;;;;;37.60;15.25;;;;;;;-1.20;64.46;102108.98;1737699;82;25592;-61
2022/03/26 04:37:55;;;;;;;32.38;15.55;;;;;;;-1.16;64.47;102108.00;1737543;82;25764;-61
2022/03/26 04:40:20;;;;;;;29.60;15.95;;;;;;;-1.13;64.48;102113.24;1738054;82;26004;-60
2022/03/26 04:42:47;;;;;;;26.85;15.75;;;;;;;-1.08;64.41;102116.27;1737781;82;27463;-61
2022/03/26 04:45:14;;;;;;;29.98;14.78;;;;;;;-1.06;64.42;102116.65;1737537;82;26124;-61
2022/03/26 04:47:41;;;;;;;31.65;16.40;;;;;;;-1.04;64.73;102112.22;1737658;82;25775;-62
2022/03/26 04:50:10;;;;;;;35.88;16.97;;;;;;;-1.02;64.75;102112.17;1737861;82;25735;-60
2022/03/26 04:52:38;;;;;;;29.32;15.65;;;;;;;-1.05;64.48;102109.58;1738130;82;25861;-60
2022/03/26 04:55:08;;;;;;;31.90;16.42;;;;;;;-1.01;64.60;102109.50;1741936;81;27439;-61
2022/03/26 04:57:43;;;;;;;33.40;15.55;;;;;;;-1.01;64.68;102104.22;1713967;82;25732;-61
2022/03/26 05:00:13;;;;;;;36.10;16.27;;;;;;;-0.97;64.63;102103.70;1744123;82;25811;-62
2022/03/26 05:02:41;;;;;;;28.65;16.20;;;;;;;-0.92;64.77;102105.83;1708829;82;25863;-61
2022/03/26 05:05:10;;;;;;;40.15;15.75;;;;;;;-0.85;64.67;102102.62;1708679;83;26135;-62
2022/03/26 05:07:48;;;;;;;29.30;16.25;;;;;;;-0.79;64.63;102100.71;1708705;82;27537;-61
2022/03/26 05:10:19;;;;;;;30.27;16.50;;;;;;;-0.71;64.61;102106.28;1692812;83;25963;-61
2022/03/26 05:12:48;;;;;;;30.90;15.48;;;;;;;-0.66;64.58;102103.12;1698263;84;25548;-61
2022/03/26 05:15:18;;;;;;;27.82;16.80;;;;;;;-0.57;64.59;102100.72;1697883;84;26420;-61
2022/03/26 05:17:45;;;;;;;31.90;17.37;;;;;;;-0.50;64.49;102102.36;1697635;84;25849;-61
2022/03/26 05:20:13;;;;;;;29.42;16.62;;;;;;;-0.45;64.38;102108.41;1697831;83;27635;-60
2022/03/26 05:22:42;;;;;;;34.27;17.25;;;;;;;-0.43;64.20;102097.36;1697755;84;25793;-59
2022/03/26 05:25:12;;;;;;;37.80;18.82;;;;;;;-0.39;64.21;102102.98;1697853;83;25985;-60
2022/03/26 05:27:48;;;;;;;43.52;20.40;;;;;;;-0.34;64.33;102095.84;1698153;83;25750;-60
2022/03/26 05:30:16;;;;;;;49.05;24.25;;;;;;;-0.28;64.14;102102.77;1692958;84;25966;-60
2022/03/26 05:32:44;;;;;;;46.55;20.95;;;;;;;-0.24;64.31;102104.44;1723608;83;27271;-60
2022/03/26 05:35:13;;;;;;;36.48;18.05;;;;;;;-0.20;64.42;102113.17;1723274;83;25806;-60
2022/03/26 05:37:47;;;;;;;44.55;19.05;;;;;;;-0.13;64.55;102108.63;1723182;81;25731;-60
2022/03/26 05:40:18;;;;;;;34.48;17.23;;;;;;;-0.07;64.50;102117.30;1724005;83;26590;-62
2022/03/26 05:42:47;;;;;;;40.88;18.95;;;;;;;-0.01;64.43;102119.80;1723487;83;25741;-60
2022/03/26 05:45:14;;;;;;;33.73;17.90;;;;;;;0.06;64.54;102120.53;1723751;83;28135;-62
2022/03/26 05:47:42;;;;;;;34.03;17.62;;;;;;;0.12;64.67;102123.50;1723637;81;25820;-60
2022/03/26 05:50:12;;;;;;;38.33;19.85;;;;;;;0.21;64.71;102128.58;1723453;81;25629;-60
2022/03/26 05:52:40;;;;;;;35.95;18.92;;;;;;;0.27;64.77;102120.95;1723267;81;26145;-60
2022/03/26 05:55:09;;;;;;;37.25;17.98;;;;;;;0.35;64.81;102120.74;1722601;81;25821;-60
2022/03/26 05:57:36;;;;;;;44.00;19.77;;;;;;;0.42;64.80;102119.69;1746812;79;27440;-60
2022/03/26 06:00:06;;;;;;;38.30;18.52;;;;;;;0.53;64.87;102120.30;1746737;80;25698;-59
2022/03/26 06:02:35;;;;;;;38.17;18.70;;;;;;;0.60;64.74;102116.58;1747100;80;25683;-61
2022/03/26 06:05:02;;;;;;;38.88;19.45;;;;;;;0.71;64.68;102126.93;1746732;81;25792;-61
2022/03/26 06:07:29;;;;;;;39.60;20.05;;;;;;;0.82;64.73;102120.45;1746936;82;25861;-61
2022/03/26 06:09:56;;;;;;;42.65;19.02;;;;;;;0.92;64.68;102114.01;1746895;80;27945;-61
2022/03/26 06:12:24;;;;;;;37.50;18.32;;;;;;;1.01;64.67;102119.53;1746907;80;25806;-61
2022/03/26 06:14:50;;;;;;;46.20;19.52;;;;;;;1.09;64.61;102123.70;1746744;81;25646;-62
2022/03/26 06:17:17;;;;;;;48.17;21.25;;;;;;;1.16;64.37;102129.71;1746469;80;25781;-60
2022/03/26 06:19:45;;;;;;;53.13;20.65;;;;;;;1.27;64.20;102125.90;1746446;81;25730;-60
2022/03/26 06:22:12;;;;;;;66.90;20.00;;;;;;;1.36;64.14;102118.55;1746665;80;27599;-60
2022/03/26 06:24:39;;;;;;;46.33;18.23;;;;;;;1.49;64.03;102125.69;1749372;80;25763;-60
2022/03/26 06:27:07;;;;;;;30.82;18.32;;;;;;;1.64;63.44;102117.75;1759088;80;25805;-60
2022/03/26 06:29:36;;;;;;;38.92;17.67;;;;;;;1.83;63.25;102124.72;1759359;80;26365;-61
2022/03/26 06:32:04;;;;;;;41.65;18.45;;;;;;;1.98;63.01;102123.36;1759005;80;25721;-60
2022/03/26 06:34:31;;;;;;;36.40;18.73;;;;;;;2.11;62.69;102119.86;1759033;80;27424;-62
2022/03/26 06:36:59;;;;;;;39.25;15.85;;;;;;;2.26;62.11;102120.31;1758415;81;25808;-60
2022/03/26 06:39:26;;;;;;;46.55;17.30;;;;;;;2.41;60.63;102118.95;1758541;80;25302;-61
2022/03/26 06:41:53;;;;;;;35.73;17.50;;;;;;;2.58;60.10;102123.69;1758922;81;25754;-61
2022/03/26 06:44:20;;;;;;;33.60;16.97;;;;;;;2.74;59.01;102122.72;1758717;81;25937;-60
2022/03/26 06:46:47;;;;;;;28.45;15.20;;;;;;;2.91;58.61;102124.34;1758826;81;27452;-61
2022/03/26 06:49:14;;;;;;;35.38;15.13;;;;;;;3.10;57.77;102127.69;1759001;81;25829;-61
2022/03/26 06:51:41;;;;;;;30.57;15.48;;;;;;;3.21;57.11;102129.52;1759045;81;25741;-61
2022/03/26 06:54:07;;;;;;;32.30;15.23;;;;;;;3.37;56.81;102123.15;1759132;80;25802;-61
2022/03/26 06:56:34;;;;;;;22.45;14.03;;;;;;;3.51;56.21;102125.30;1753458;80;25928;-60
2022/03/26 06:59:02;;;;;;;31.23;16.67;;;;;;;3.67;55.28;102128.27;1757935;79;27319;-61
2022/03/26 07:01:29;;;;;;;45.23;16.95;;;;;;;3.82;55.41;102126.82;1744441;82;25725;-61
2022/03/26 07:03:58;;;;;;;39.33;16.57;;;;;;;3.96;54.98;102123.62;1744077;82;25964;-60
2022/03/26 07:06:25;;;;;;;37.35;17.37;;;;;;;4.08;54.53;102131.11;1744628;80;26986;-61
2022/03/26 07:08:53;;;;;;;50.33;17.48;;;;;;;4.25;54.09;102122.05;1740728;80;26198;-61
2022/03/26 07:11:20;;;;;;;32.90;18.02;;;;;;;4.39;53.65;102133.03;1733245;82;27430;-61
2022/03/26 07:13:47;;;;;;;35.63;18.48;;;;;;;4.52;53.30;102122.26;1735210;81;25703;-61
2022/03/26 07:16:14;;;;;;;101.90;55.28;;;;;;;4.63;53.17;102127.13;1733328;82;25826;-61
2022/03/26 07:18:41;;;;;;;38.30;19.20;;;;;;;4.74;52.17;102120.04;1711955;82;25895;-61
2022/03/26 07:21:08;;;;;;;33.95;17.45;;;;;;;4.90;51.68;102114.05;1734976;82;25792;-61
2022/03/26 07:23:35;;;;;;;42.95;17.40;;;;;;;5.01;51.86;102121.97;1733570;82;27658;-60
2022/03/26 07:26:03;;;;;;;40.33;18.30;;;;;;;5.13;52.01;102115.70;1732410;82;25485;-61
2022/03/26 07:28:30;;;;;;;40.85;17.75;;;;;;;5.24;51.79;102104.55;1735107;82;25776;-61
2022/03/26 07:30:57;;;;;;;37.95;18.75;;;;;;;5.36;51.59;102108.47;1734183;82;25916;-60
2022/03/26 07:33:24;;;;;;;35.00;17.85;;;;;;;5.47;51.28;102103.03;1732322;82;26091;-61
2022/03/26 07:35:50;;;;;;;39.65;19.00;;;;;;;5.58;51.36;102101.22;1735150;80;27522;-61
2022/03/26 07:38:18;;;;;;;40.20;18.25;;;;;;;5.72;50.72;102102.37;1730923;82;25526;-61
2022/03/26 07:40:44;;;;;;;38.95;18.10;;;;;;;5.86;50.36;102097.27;1719009;81;25715;-61
2022/03/26 07:43:11;;;;;;;45.08;18.87;;;;;;;6.02;49.71;102093.39;1719038;81;25797;-61
2022/03/26 07:45:38;;;;;;;35.20;18.27;;;;;;;6.17;49.68;102099.81;1732793;81;25683;-61
2022/03/26 07:48:06;;;;;;;40.00;18.00;;;;;;;6.33;49.42;102087.91;1748566;80;27696;-62
2022/03/26 07:50:34;;;;;;;38.08;19.27;;;;;;;6.46;49.58;102096.17;1740291;82;25763;-61
2022/03/26 07:53:01;;;;;;;57.55;19.70;;;;;;;6.61;48.57;102083.84;1730963;82;25541;-62
2022/03/26 07:55:28;;;;;;;47.13;19.55;;;;;;;6.75;48.75;102075.11;1728696;82;25791;-59
2022/03/26 07:57:55;;;;;;;37.15;18.20;;;;;;;6.92;48.82;102080.05;1737175;79;27281;-62
2022/03/26 08:00:22;;;;;;;42.05;19.32;;;;;;;7.11;47.95;102072.80;1739348;81;28354;-63
2022/03/26 08:02:49;;;;;;;37.93;19.30;;;;;;;7.25;47.45;102077.41;1739309;81;25768;-60
2022/03/26 08:05:16;;;;;;;37.85;18.15;;;;;;;7.42;47.78;102071.13;1724122;81;25779;-61
2022/03/26 08:07:42;;;;;;;40.05;18.65;;;;;;;7.56;46.45;102070.86;1723293;83;25844;-60
2022/03/26 08:10:10;;;;;;;40.70;18.27;;;;;;;7.72;46.25;102065.49;1723607;83;25763;-60
2022/03/26 08:12:37;;;;;;;38.28;17.50;;;;;;;7.89;46.78;102063.22;1723442;83;28287;-61
2022/03/26 08:15:06;;;;;;;33.92;17.60;;;;;;;8.08;46.26;102060.34;1735936;81;27282;-60
2022/03/26 08:17:33;;;;;;;34.10;18.25;;;;;;;8.24;45.82;102056.30;1737855;81;25775;-61
2022/03/26 08:20:00;;;;;;;39.27;18.80;;;;;;;8.44;45.76;102053.33;1741614;81;26782;-60
2022/03/26 08:22:27;;;;;;;37.03;18.05;;;;;;;8.64;44.89;102051.31;1727727;81;25682;-61
2022/03/26 08:24:54;;;;;;;44.00;18.75;;;;;;;8.82;45.02;102045.30;1732550;81;27452;-60
2022/03/26 08:27:22;;;;;;;32.67;16.62;;;;;;;8.99;44.23;102045.62;1752957;81;25820;-60
2022/03/26 08:29:50;;;;;;;33.75;17.48;;;;;;;9.20;43.81;102037.17;1753621;81;25669;-60
2022/03/26 08:32:17;;;;;;;40.88;17.62;;;;;;;9.43;41.76;102023.63;1753706;81;26668;-62
2022/03/26 08:34:45;;;;;;;36.50;17.20;;;;;;;9.61;43.29;102023.41;1753685;81;25726;-61
2022/03/26 08:37:13;;;;;;;32.63;17.12;;;;;;;9.85;42.17;102020.95;1753702;80;27155;-60
2022/03/26 08:39:40;;;;;;;32.63;16.67;;;;;;;10.03;40.00;102018.39;1753528;81;25718;-60
2022/03/26 08:42:07;;;;;;;29.98;16.25;;;;;;;10.25;39.09;102014.74;1753813;81;25694;-61
2022/03/26 08:44:36;;;;;;;41.65;17.20;;;;;;;10.46;39.96;102009.30;1753545;81;25806;-60
2022/03/26 08:47:06;;;;;;;33.10;16.90;;;;;;;10.75;38.88;101997.47;1753704;81;25793;-62
2022/03/26 08:49:34;;;;;;;32.58;16.50;;;;;;;10.98;38.72;101998.55;1753761;81;28345;-60
2022/03/26 08:52:01;;;;;;;27.15;16.57;;;;;;;11.23;38.40;101992.75;1753252;81;25782;-60
2022/03/26 08:54:28;;;;;;;36.70;16.60;;;;;;;11.41;38.31;101977.95;1753890;81;25812;-61
2022/03/26 08:56:56;;;;;;;31.73;16.35;;;;;;;11.66;38.63;101977.98;1752526;81;25768;-61
2022/03/26 08:59:23;;;;;;;36.25;16.80;;;;;;;11.94;36.81;101976.77;1747683;79;25446;-61
2022/03/26 09:01:51;;;;;;;34.40;18.02;;;;;;;12.17;36.56;101967.47;1746377;80;27488;-62
2022/03/26 09:04:18;;;;;;;53.75;27.70;;;;;;;12.40;36.42;101964.35;1746856;82;25814;-61
2022/03/26 09:06:44;;;;;;;38.70;16.65;;;;;;;12.68;36.13;101960.84;1746808;82;25822;-61
2022/03/26 09:09:14;;;;;;;30.50;16.32;;;;;;;12.95;34.38;101955.08;1747171;82;25894;-60
2022/03/26 09:11:40;;;;;;;29.20;14.98;;;;;;;13.22;34.38;101953.84;1746633;82;25739;-62
2022/03/26 09:14:07;;;;;;;30.35;16.25;;;;;;;13.53;33.65;101951.38;1746976;82;28080;-61
2022/03/26 09:16:34;;;;;;;33.98;14.95;;;;;;;13.86;33.66;101956.30;1746740;82;25726;-61
2022/03/26 09:19:02;;;;;;;26.40;14.10;;;;;;;14.14;33.77;101951.73;1746715;80;25827;-62
2022/03/26 09:21:29;;;;;;;65.28;25.80;;;;;;;14.42;32.79;101939.42;1746663;82;25888;-61
2022/03/26 09:23:56;;;;;;;40.38;18.70;;;;;;;14.77;32.78;101948.17;1739883;80;27311;-61
2022/03/26 09:26:23;;;;;;;28.40;13.58;;;;;;;15.11;32.61;101931.62;1738533;81;27455;-61
2022/03/26 09:28:50;;;;;;;29.20;13.90;;;;;;;15.53;31.82;101931.45;1738573;81;25712;-62
2022/03/26 09:31:17;;;;;;;27.62;12.82;;;;;;;15.91;31.44;101924.34;1739925;81;25690;-61
2022/03/26 09:33:45;;;;;;;26.77;12.82;;;;;;;16.57;30.79;101918.61;1740907;81;25803;-61
2022/03/26 09:36:12;;;;;;;30.97;13.83;;;;;;;17.23;29.64;101914.55;1738276;81;25759;-62
2022/03/26 09:38:38;;;;;;;26.75;12.70;;;;;;;17.91;30.01;101909.13;1722968;83;27661;-62
2022/03/26 09:41:07;;;;;;;19.32;10.05;;;;;;;18.63;29.54;101910.84;1723256;81;25820;-61
2022/03/26 09:43:36;;;;;;;30.10;11.75;;;;;;;19.34;28.83;101896.50;1723078;83;25815;-61
2022/03/26 09:46:03;;;;;;;18.02;10.32;;;;;;;20.04;28.74;101886.71;1723435;83;25779;-61
2022/03/26 09:48:31;;;;;;;21.02;11.08;;;;;;;20.53;26.41;101882.52;1723758;83;25805;-64
2022/03/26 09:50:59;;;;;;;20.88;9.93;;;;;;;20.87;25.38;101884.13;1726066;80;27652;-61
2022/03/26 09:53:27;;;;;;;23.22;10.45;;;;;;;21.04;25.54;101871.73;1723570;81;25720;-62
2022/03/26 09:55:55;;;;;;;26.07;10.70;;;;;;;21.58;25.88;101870.93;1691209;83;25773;-61
2022/03/26 09:58:23;;;;;;;22.15;9.85;;;;;;;22.16;26.18;101869.91;1666210;83;25912;-62
2022/03/26 10:00:53;;;;;;;27.90;13.05;;;;;;;22.86;25.19;101859.20;1718811;82;25284;-62
2022/03/26 10:03:20;;;;;;;34.65;18.75;;;;;;;23.02;22.68;101855.39;1718416;83;28478;-62
2022/03/26 10:05:47;;;;;;;23.70;10.35;;;;;;;23.09;23.96;101842.59;1710564;82;25511;-61
2022/03/26 10:08:21;;;;;;;22.05;9.70;;;;;;;23.63;24.47;101844.55;1705959;84;25528;-62
2022/03/26 10:10:50;;;;;;;14.78;7.58;;;;;;;24.20;22.83;101837.20;1706002;84;25872;-62
2022/03/26 10:13:42;;;;;;;23.55;8.85;;;;;;;24.51;22.05;101823.55;1705814;82;25821;-62
2022/03/26 10:16:13;;;;;;;21.93;10.00;;;;;;;24.84;21.23;101833.33;1727841;82;27587;-61
2022/03/26 10:18:46;;;;;;;19.75;9.03;;;;;;;25.00;21.25;101819.73;1735121;82;25792;-62
2022/03/26 10:21:17;;;;;;;22.27;8.98;;;;;;;24.92;21.32;101806.16;1735629;82;25489;-62
2022/03/26 10:23:48;;;;;;;16.97;8.48;;;;;;;25.18;21.79;101796.81;1735406;81;25845;-63
2022/03/26 10:26:21;;;;;;;12.75;8.00;;;;;;;25.69;21.73;101793.48;1738359;81;25515;-61
2022/03/26 10:28:53;;;;;;;;;;;;;;;26.10;20.47;101794.31;1741012;81;28318;-63
2022/03/26 10:34:20;;;;;;;21.70;8.95;;;;;;;26.01;18.51;101788.67;1738346;82;25693;-63
2022/03/26 10:36:55;;;;;;;24.50;8.25;;;;;;;25.79;19.48;101783.39;1738831;82;25824;-62
2022/03/26 10:39:25;;;;;;;18.60;8.53;;;;;;;26.29;19.54;101769.66;1737076;82;25794;-62
2022/03/26 10:41:59;;;;;;;21.45;9.05;;;;;;;26.43;17.86;101772.67;1738530;82;28102;-62
2022/03/26 10:44:29;;;;;;;14.95;7.40;;;;;;;26.49;18.40;101765.44;1737998;82;25457;-62
2022/03/26 10:46:59;;;;;;;18.73;7.90;;;;;;;26.49;18.49;101760.75;1738512;82;25811;-61
2022/03/26 10:49:40;;;;;;;18.57;8.20;;;;;;;26.94;18.80;101751.64;1738580;82;25857;-61
2022/03/26 10:52:19;;;;;;;13.43;7.35;;;;;;;27.30;18.09;101754.26;1738269;81;25758;-62
2022/03/26 10:54:47;;;;;;;18.45;7.62;;;;;;;27.86;16.99;101728.16;1738244;81;27449;-63
2022/03/26 10:57:14;;;;;;;14.13;7.65;;;;;;;27.58;17.10;101728.13;1737346;80;26415;-64
2022/03/26 10:59:41;;;;;;;15.65;7.65;;;;;;;27.54;17.00;101728.80;1706331;82;25737;-64
2022/03/26 11:02:09;;;;;;;16.10;7.17;;;;;;;27.40;17.29;101722.52;1705910;84;25797;-62
2022/03/26 11:04:36;;;;;;;13.68;7.62;;;;;;;27.18;16.78;101718.75;1706373;82;25698;-62
2022/03/26 11:07:06;;;;;;;15.65;7.42;;;;;;;26.84;16.98;101714.87;1722151;82;27701;-63
2022/03/26 11:09:33;;;;;;;13.95;6.78;;;;;;;26.15;17.36;101706.27;1696140;82;26380;-62
2022/03/26 11:12:02;;;;;;;12.70;7.67;;;;;;;26.35;17.91;101704.83;1718631;82;25452;-62
2022/03/26 11:14:33;;;;;;;15.78;8.03;;;;;;;26.66;17.26;101700.95;1728846;81;25986;-62
2022/03/26 11:17:42;;;;;;;18.07;7.47;;;;;;;27.04;18.15;101702.82;1726979;82;25753;-63